createdAt,value
2022-09-25T00:02:41.770Z,13.21
2022-09-25T00:05:46.698Z,13.22
2022-09-25T00:08:49.934Z,13.16
2022-09-25T00:11:53.932Z,13.13
2022-09-25T00:14:57.227Z,13.07
2022-09-25T00:17:59.777Z,13.06
2022-09-25T00:21:01.690Z,13.10
2022-09-25T00:24:06.396Z,13.13
2022-09-25T00:27:10.280Z,13.13
2022-09-25T00:30:14.370Z,13.20
2022-09-25T00:33:16.939Z,13.26
2022-09-25T00:36:19.731Z,13.32
2022-09-25T00:39:22.533Z,13.35
2022-09-25T00:42:26.676Z,13.32
2022-09-25T00:45:29.425Z,13.40
2022-09-25T00:48:32.407Z,13.48
2022-09-25T00:51:42.980Z,13.51
2022-09-25T00:54:48.128Z,13.53
2022-09-25T00:57:54.304Z,13.56
2022-09-25T01:00:57.064Z,13.60
2022-09-25T01:04:00.411Z,13.60
2022-09-25T01:07:03.354Z,13.64
2022-09-25T01:10:08.054Z,13.68
2022-09-25T01:13:12.804Z,13.74
2022-09-25T01:16:20.368Z,13.78
2022-09-25T01:19:32.618Z,13.83
2022-09-25T01:22:47.844Z,13.89
2022-09-25T01:26:01.434Z,13.90
2022-09-25T01:29:12.426Z,13.85
2022-09-25T01:32:20.940Z,13.85
2022-09-25T01:35:30.043Z,13.89
2022-09-25T01:38:35.391Z,13.97
2022-09-25T01:41:41.521Z,14.03
2022-09-25T01:44:47.681Z,14.05
2022-09-25T01:47:52.063Z,14.09
2022-09-25T01:50:58.576Z,14.11
2022-09-25T01:54:05.163Z,14.15
2022-09-25T01:57:10.432Z,14.19
2022-09-25T02:00:18.964Z,14.32
2022-09-25T02:03:25.955Z,14.36
2022-09-25T02:06:29.092Z,14.28
2022-09-25T02:09:37.608Z,14.25
2022-09-25T02:12:43.393Z,14.25
2022-09-25T02:15:49.578Z,14.19
2022-09-25T02:19:10.269Z,14.15
2022-09-25T02:22:17.385Z,14.10
2022-09-25T02:25:21.970Z,14.09
2022-09-25T02:28:24.576Z,14.08
2022-09-25T02:31:31.094Z,14.14
2022-09-25T02:34:34.166Z,14.13
2022-09-25T02:37:36.821Z,14.16
2022-09-25T02:40:45.233Z,14.04
2022-09-25T02:43:55.764Z,13.97
2022-09-25T02:47:08.295Z,14.02
2022-09-25T02:50:17.333Z,14.02
2022-09-25T02:53:24.352Z,13.84
2022-09-25T02:56:31.096Z,13.78
2022-09-25T02:59:36.442Z,13.77
2022-09-25T03:02:41.129Z,13.68
2022-09-25T03:05:44.140Z,13.66
2022-09-25T03:08:49.379Z,13.67
2022-09-25T03:11:51.916Z,13.65
2022-09-25T03:14:54.600Z,13.69
2022-09-25T03:17:58.585Z,13.58
2022-09-25T03:21:01.218Z,13.57
2022-09-25T03:24:03.958Z,13.57
2022-09-25T03:27:06.521Z,13.59
2022-09-25T03:30:10.146Z,13.62
2022-09-25T03:33:14.486Z,13.64
2022-09-25T03:36:19.384Z,13.63
2022-09-25T03:39:22.070Z,13.59
2022-09-25T03:42:27.624Z,13.56
2022-09-25T03:45:30.278Z,13.59
2022-09-25T03:48:34.425Z,13.63
2022-09-25T03:51:37.114Z,13.75
2022-09-25T03:54:40.052Z,13.74
2022-09-25T03:57:42.922Z,13.74
2022-09-25T04:00:46.827Z,13.59
2022-09-25T04:03:51.167Z,13.55
2022-09-25T04:06:53.776Z,13.51
2022-09-25T04:09:56.278Z,13.36
2022-09-25T04:12:59.069Z,13.30
2022-09-25T04:16:03.643Z,13.40
2022-09-25T04:19:07.874Z,13.48
2022-09-25T04:22:10.516Z,13.53
2022-09-25T04:25:14.268Z,13.50
2022-09-25T04:28:16.950Z,13.47
2022-09-25T04:31:19.743Z,13.50
2022-09-25T04:34:22.740Z,13.52
2022-09-25T04:37:26.218Z,13.47
2022-09-25T04:40:28.833Z,13.44
2022-09-25T04:43:32.904Z,13.38
2022-09-25T04:46:35.571Z,13.38
2022-09-25T04:49:39.714Z,13.34
2022-09-25T04:52:42.300Z,13.28
2022-09-25T04:55:46.159Z,13.27
2022-09-25T04:58:50.369Z,13.25
2022-09-25T05:01:53.163Z,13.23
2022-09-25T05:04:57.226Z,13.25
2022-09-25T05:08:01.374Z,13.23
2022-09-25T05:11:04.331Z,13.24
2022-09-25T05:14:07.534Z,13.22
2022-09-25T05:17:11.312Z,13.25
2022-09-25T05:20:16.135Z,13.29
2022-09-25T05:23:18.765Z,13.33
2022-09-25T05:26:22.544Z,13.38
2022-09-25T05:29:25.256Z,13.39
2022-09-25T05:32:27.875Z,13.41
2022-09-25T05:35:33.147Z,13.48
2022-09-25T05:38:36.855Z,13.52
2022-09-25T05:41:39.516Z,13.52
2022-09-25T05:44:42.270Z,13.51
2022-09-25T05:47:45.039Z,13.58
2022-09-25T05:50:58.846Z,13.67
2022-09-25T05:54:01.298Z,13.81
2022-09-25T05:57:04.049Z,13.87
2022-09-25T06:00:09.216Z,13.88
2022-09-25T06:03:12.281Z,13.95
2022-09-25T06:06:16.256Z,14.06
2022-09-25T06:09:19.066Z,14.13
2022-09-25T06:12:23.158Z,14.27
2022-09-25T06:15:27.304Z,14.40
2022-09-25T06:18:29.981Z,14.37
2022-09-25T06:21:34.030Z,14.43
2022-09-25T06:24:36.683Z,14.55
2022-09-25T06:27:39.374Z,14.51
2022-09-25T06:30:41.985Z,14.46
2022-09-25T06:33:46.243Z,14.59
2022-09-25T06:36:50.284Z,14.68
2022-09-25T06:39:52.983Z,14.66
2022-09-25T06:42:59.040Z,14.76
2022-09-25T06:46:03.627Z,14.92
2022-09-25T06:49:06.595Z,15.13
2022-09-25T06:52:10.794Z,15.27
2022-09-25T06:55:13.369Z,15.40
2022-09-25T06:58:17.552Z,15.50
2022-09-25T07:01:20.360Z,15.67
2022-09-25T07:04:22.613Z,15.66
2022-09-25T07:07:26.810Z,15.69
2022-09-25T07:10:29.622Z,15.77
2022-09-25T07:13:35.083Z,15.82
2022-09-25T07:16:37.709Z,15.86
2022-09-25T07:19:40.416Z,15.85
2022-09-25T07:22:44.419Z,15.87
2022-09-25T07:25:47.879Z,15.93
2022-09-25T07:28:51.446Z,16.05
2022-09-25T07:31:54.074Z,16.17
2022-09-25T07:34:56.726Z,16.33
2022-09-25T07:38:00.629Z,16.41
2022-09-25T07:41:03.269Z,16.49
2022-09-25T07:47:28.955Z,16.51
2022-09-25T07:50:32.775Z,16.77
2022-09-25T07:53:36.962Z,16.91
2022-09-25T07:56:39.857Z,16.95
2022-09-25T07:59:42.559Z,16.97
2022-09-25T08:02:45.467Z,16.98
2022-09-25T08:05:48.228Z,17.02
2022-09-25T08:08:52.310Z,16.88
2022-09-25T08:11:55.065Z,16.77
2022-09-25T08:14:57.890Z,16.74
2022-09-25T08:18:00.481Z,16.77
2022-09-25T08:21:03.886Z,16.62
2022-09-25T08:24:07.933Z,16.60
2022-09-25T08:27:10.847Z,16.77
2022-09-25T08:30:14.101Z,16.66
2022-09-25T08:33:17.041Z,17.01
2022-09-25T08:36:19.854Z,17.01
2022-09-25T08:39:23.917Z,17.20
2022-09-25T08:42:30.574Z,17.59
2022-09-25T08:45:52.383Z,18.12
2022-09-25T08:49:06.265Z,18.48
2022-09-25T08:52:12.497Z,18.50
2022-09-25T08:55:18.409Z,18.12
2022-09-25T08:58:24.613Z,18.26
2022-09-25T09:01:29.576Z,18.14
2022-09-25T09:04:33.775Z,18.09
2022-09-25T09:07:40.241Z,18.00
2022-09-25T09:10:45.371Z,17.98
2022-09-25T09:13:51.536Z,17.78
2022-09-25T09:17:02.110Z,17.47
2022-09-25T09:20:15.762Z,17.19
2022-09-25T09:23:18.864Z,17.62
2022-09-25T09:26:28.886Z,18.77
2022-09-25T09:29:41.596Z,19.45
2022-09-25T09:32:55.239Z,19.53
2022-09-25T09:36:00.877Z,19.49
2022-09-25T09:39:07.641Z,19.93
2022-09-25T09:42:19.614Z,19.99
2022-09-25T09:45:28.298Z,19.90
2022-09-25T09:48:35.674Z,19.88
2022-09-25T09:51:41.985Z,19.78
2022-09-25T09:54:47.416Z,19.67
2022-09-25T09:57:53.132Z,19.09
2022-09-25T10:00:56.034Z,18.63
2022-09-25T10:04:04.414Z,17.95
2022-09-25T10:07:09.711Z,17.67
2022-09-25T10:10:15.249Z,17.46
2022-09-25T10:13:21.783Z,17.84
2022-09-25T10:16:25.156Z,17.94
2022-09-25T10:19:29.160Z,18.67
2022-09-25T10:22:33.720Z,19.05
2022-09-25T10:25:38.459Z,19.34
2022-09-25T10:28:44.044Z,19.74
2022-09-25T10:31:46.909Z,20.85
2022-09-25T10:34:53.456Z,20.68
2022-09-25T10:37:58.763Z,19.71
2022-09-25T10:41:04.140Z,19.55
2022-09-25T10:44:22.330Z,19.19
2022-09-25T10:47:49.066Z,18.63
2022-09-25T10:51:06.714Z,17.65
2022-09-25T10:54:13.811Z,17.27
2022-09-25T10:57:18.736Z,16.88
2022-09-25T11:00:25.078Z,16.73
2022-09-25T11:03:29.426Z,16.53
2022-09-25T11:06:34.873Z,16.02
2022-09-25T11:09:37.784Z,15.91
2022-09-25T11:12:45.298Z,15.87
2022-09-25T11:15:53.288Z,15.80
2022-09-25T11:19:08.641Z,15.81
2022-09-25T11:22:18.130Z,15.96
2022-09-25T11:25:25.693Z,16.09
2022-09-25T11:28:32.594Z,15.99
2022-09-25T11:31:39.788Z,15.90
2022-09-25T11:34:57.224Z,16.12
2022-09-25T11:38:05.427Z,16.45
2022-09-25T11:41:14.838Z,16.77
2022-09-25T11:44:27.552Z,17.10
2022-09-25T11:47:36.648Z,16.97
2022-09-25T11:50:47.896Z,17.11
2022-09-25T11:54:12.390Z,17.35
2022-09-25T11:57:24.154Z,17.37
2022-09-25T12:00:30.838Z,17.42
2022-09-25T12:03:43.377Z,17.63
2022-09-25T12:06:55.153Z,17.66
2022-09-25T12:10:08.767Z,17.85
2022-09-25T12:13:13.907Z,18.00
2022-09-25T12:16:20.815Z,18.12
2022-09-25T12:19:32.507Z,17.87
2022-09-25T12:22:44.290Z,18.23
2022-09-25T12:25:56.173Z,19.20
2022-09-25T12:29:14.630Z,19.40
2022-09-25T12:32:28.586Z,20.03
2022-09-25T12:35:41.595Z,20.33
2022-09-25T12:38:50.594Z,20.47
2022-09-25T12:41:56.882Z,21.05
2022-09-25T12:45:02.506Z,21.29
2022-09-25T12:48:10.556Z,22.95
2022-09-25T12:51:18.639Z,29.20
2022-09-25T12:54:25.458Z,30.47
2022-09-25T12:57:32.174Z,28.49
2022-09-25T13:00:37.299Z,24.81
2022-09-25T13:03:45.360Z,22.36
2022-09-25T13:06:52.534Z,20.17
2022-09-25T13:09:55.255Z,20.20
2022-09-25T13:13:00.566Z,19.42
2022-09-25T13:16:03.458Z,19.21
2022-09-25T13:19:21.131Z,19.78
2022-09-25T13:22:26.430Z,19.58
2022-09-25T13:25:29.376Z,20.45
2022-09-25T13:28:34.377Z,19.99
2022-09-25T13:31:43.139Z,19.03
2022-09-25T13:34:46.189Z,18.03
2022-09-25T13:37:54.666Z,18.86
2022-09-25T13:40:56.518Z,19.65
2022-09-25T13:44:41.241Z,22.74
2022-09-25T13:48:06.071Z,23.70
2022-09-25T13:51:28.742Z,22.69
2022-09-25T13:54:34.426Z,24.18
2022-09-25T13:58:03.632Z,21.08
2022-09-25T14:01:12.821Z,19.32
2022-09-25T14:04:22.136Z,19.02
2022-09-25T14:07:26.608Z,18.66
2022-09-25T14:10:30.646Z,21.48
2022-09-25T14:13:34.956Z,24.43
2022-09-25T14:16:43.186Z,26.44
2022-09-25T14:19:48.508Z,23.94
2022-09-25T14:22:55.997Z,23.10
2022-09-25T14:26:00.818Z,24.74
2022-09-25T14:29:03.440Z,23.13
2022-09-25T14:32:36.504Z,21.86
2022-09-25T14:35:43.425Z,21.59
2022-09-25T14:38:58.909Z,22.38
2022-09-25T14:42:21.390Z,24.04
2022-09-25T14:45:41.714Z,23.50
2022-09-25T14:48:47.823Z,22.37
2022-09-25T14:51:51.562Z,22.92
2022-09-25T14:54:56.958Z,22.54
2022-09-25T14:58:01.940Z,23.34
2022-09-25T15:01:15.053Z,22.71
2022-09-25T15:04:26.958Z,22.39
2022-09-25T15:07:29.631Z,24.70
2022-09-25T15:10:34.945Z,22.62
2022-09-25T15:13:39.048Z,19.59
2022-09-25T15:17:01.060Z,18.72
2022-09-25T15:20:09.179Z,19.56
2022-09-25T15:23:17.380Z,18.37
2022-09-25T15:26:20.366Z,22.99
2022-09-25T15:29:25.748Z,21.40
2022-09-25T15:32:30.596Z,24.24
2022-09-25T15:35:33.595Z,28.15
2022-09-25T15:38:37.613Z,28.45
2022-09-25T15:41:40.330Z,26.88
2022-09-25T15:44:44.926Z,24.19
2022-09-25T15:47:53.395Z,23.44
2022-09-25T15:50:56.544Z,28.29
2022-09-25T15:54:01.352Z,24.99
2022-09-25T15:57:07.942Z,20.95
2022-09-25T16:00:36.796Z,21.31
2022-09-25T16:03:56.968Z,24.02
2022-09-25T16:06:59.631Z,24.43
2022-09-25T16:10:05.213Z,27.75
2022-09-25T16:13:20.480Z,27.86
2022-09-25T16:16:29.434Z,22.46
2022-09-25T16:19:34.578Z,19.56
2022-09-25T16:22:42.882Z,17.75
2022-09-25T16:25:46.020Z,16.88
2022-09-25T16:28:54.916Z,16.60
2022-09-25T16:32:03.823Z,16.33
2022-09-25T16:35:07.160Z,16.06
2022-09-25T16:38:27.582Z,15.86
2022-09-25T16:41:30.438Z,15.60
2022-09-25T16:44:45.077Z,15.44
2022-09-25T16:47:49.651Z,15.18
2022-09-25T16:50:52.592Z,15.16
2022-09-25T16:53:58.210Z,15.07
2022-09-25T16:57:02.381Z,15.15
2022-09-25T17:00:06.421Z,15.28
2022-09-25T17:03:11.432Z,15.36
2022-09-25T17:06:14.047Z,15.44
2022-09-25T17:09:18.270Z,15.28
2022-09-25T17:12:22.918Z,15.14
2022-09-25T17:15:29.201Z,15.10
2022-09-25T17:18:33.280Z,14.99
2022-09-25T17:21:35.858Z,14.92
2022-09-25T17:24:38.659Z,14.64
2022-09-25T17:27:41.451Z,14.49
2022-09-25T17:30:45.323Z,14.28
2022-09-25T17:33:50.872Z,14.34
2022-09-25T17:36:53.653Z,14.23
2022-09-25T17:39:56.197Z,14.22
2022-09-25T17:42:58.804Z,14.39
2022-09-25T17:46:02.172Z,14.43
2022-09-25T17:49:06.228Z,14.45
2022-09-25T17:52:11.128Z,14.42
2022-09-25T17:55:17.298Z,14.35
2022-09-25T17:58:19.847Z,14.38
2022-09-25T18:01:23.753Z,14.33
2022-09-25T18:04:28.067Z,14.42
2022-09-25T18:07:33.715Z,14.44
2022-09-25T18:10:37.224Z,14.40
2022-09-25T18:13:41.854Z,14.30
2022-09-25T18:16:45.938Z,14.11
2022-09-25T18:20:07.368Z,14.27
2022-09-25T18:23:10.132Z,14.13
2022-09-25T18:26:12.893Z,14.15
2022-09-25T18:29:17.064Z,14.10
2022-09-25T18:32:19.763Z,14.10
2022-09-25T18:35:24.580Z,14.10
2022-09-25T18:38:27.302Z,13.94
2022-09-25T18:41:31.110Z,13.99
2022-09-25T18:44:42.234Z,14.01
2022-09-25T18:47:46.498Z,14.00
2022-09-25T18:50:51.501Z,14.06
2022-09-25T18:53:56.641Z,13.86
2022-09-25T18:56:59.451Z,13.79
2022-09-25T19:00:02.742Z,13.60
2022-09-25T19:03:06.079Z,13.63
2022-09-25T19:06:10.439Z,13.65
2022-09-25T19:09:16.690Z,13.57
2022-09-25T19:12:20.476Z,13.58
2022-09-25T19:15:25.028Z,13.60
2022-09-25T19:18:27.883Z,13.51
2022-09-25T19:21:33.153Z,13.48
2022-09-25T19:24:38.238Z,13.52
2022-09-25T19:27:41.096Z,13.61
2022-09-25T19:30:44.498Z,13.62
2022-09-25T19:33:48.133Z,13.72
2022-09-25T19:36:54.009Z,13.75
2022-09-25T19:40:14.859Z,13.74
2022-09-25T19:43:18.212Z,13.71
2022-09-25T19:46:22.383Z,13.68
2022-09-25T19:49:25.590Z,13.66
2022-09-25T19:52:30.141Z,13.52
2022-09-25T19:55:37.070Z,13.60
2022-09-25T19:58:40.008Z,13.72
2022-09-25T20:01:43.962Z,13.75
2022-09-25T20:04:48.190Z,13.67
2022-09-25T20:07:52.615Z,13.64
2022-09-25T20:10:55.276Z,13.48
2022-09-25T20:13:58.460Z,13.45
2022-09-25T20:17:02.818Z,13.45
2022-09-25T20:20:07.731Z,13.29
2022-09-25T20:23:11.998Z,13.31
2022-09-25T20:26:16.547Z,13.14
2022-09-25T20:29:19.713Z,13.02
2022-09-25T20:32:22.302Z,12.98
2022-09-25T20:35:24.988Z,12.89
2022-09-25T20:38:29.354Z,12.81
2022-09-25T20:41:32.239Z,12.80
2022-09-25T20:44:34.918Z,12.94
2022-09-25T20:47:45.819Z,12.91
2022-09-25T20:50:51.183Z,12.84
2022-09-25T20:53:57.994Z,12.86
2022-09-25T20:57:00.796Z,12.86
2022-09-25T21:00:04.197Z,12.98
2022-09-25T21:03:07.221Z,12.88
2022-09-25T21:06:12.081Z,12.88
2022-09-25T21:09:20.412Z,12.91
2022-09-25T21:12:23.024Z,12.85
2022-09-25T21:15:27.790Z,12.95
2022-09-25T21:18:30.522Z,13.02
2022-09-25T21:21:34.400Z,12.98
2022-09-25T21:24:39.536Z,13.06
2022-09-25T21:27:42.308Z,13.06
2022-09-25T21:30:44.973Z,12.98
2022-09-25T21:33:47.768Z,12.97
2022-09-25T21:36:50.590Z,12.93
2022-09-25T21:39:54.658Z,12.91
2022-09-25T21:42:57.244Z,12.83
2022-09-25T21:46:00.598Z,12.83
2022-09-25T21:49:05.141Z,12.68
2022-09-25T21:52:08.757Z,12.81
2022-09-25T21:55:12.863Z,12.81
2022-09-25T21:58:16.200Z,12.73
2022-09-25T22:01:20.629Z,12.64
2022-09-25T22:04:23.238Z,12.55
2022-09-25T22:07:25.994Z,12.52
2022-09-25T22:10:30.967Z,12.42
2022-09-25T22:13:35.507Z,12.44
2022-09-25T22:16:39.802Z,12.33
2022-09-25T22:19:42.509Z,12.26
2022-09-25T22:22:48.969Z,12.21
2022-09-25T22:25:53.074Z,12.17
2022-09-25T22:28:56.205Z,12.22
2022-09-25T22:31:58.933Z,12.23
2022-09-25T22:35:01.602Z,12.21
2022-09-25T22:38:04.665Z,12.31
2022-09-25T22:41:11.180Z,12.40
2022-09-25T22:44:13.921Z,12.49
2022-09-25T22:47:16.469Z,12.46
2022-09-25T22:50:19.097Z,12.47
2022-09-25T22:53:22.486Z,12.46
2022-09-25T22:56:28.979Z,12.53
2022-09-25T22:59:31.655Z,12.55
2022-09-25T23:02:34.353Z,12.59
2022-09-25T23:05:37.427Z,12.66
2022-09-25T23:08:39.981Z,12.64
2022-09-25T23:11:44.403Z,12.58
2022-09-25T23:14:47.067Z,12.59
2022-09-25T23:17:49.686Z,12.61
2022-09-25T23:20:55.678Z,12.60
2022-09-25T23:23:59.344Z,12.59
2022-09-25T23:27:03.211Z,12.63
2022-09-25T23:30:06.570Z,12.55
2022-09-25T23:33:09.288Z,12.52
2022-09-25T23:36:13.635Z,12.49
2022-09-25T23:39:20.559Z,12.46
2022-09-25T23:42:24.574Z,12.44
2022-09-25T23:45:28.147Z,12.46
2022-09-25T23:48:30.733Z,12.40
2022-09-25T23:51:33.548Z,12.22
2022-09-25T23:54:36.938Z,12.04
2022-09-25T23:57:40.935Z,11.97
